createdAt,value
2022-09-13T00:01:35.550Z,3.85
2022-09-13T00:06:36.387Z,3.63
2022-09-13T00:11:33.269Z,3.83
2022-09-13T00:16:30.710Z,3.72
2022-09-13T00:21:28.432Z,3.63
2022-09-13T00:26:28.000Z,3.70
2022-09-13T00:31:36.572Z,3.22
2022-09-13T00:36:33.995Z,3.25
2022-09-13T00:41:36.487Z,3.13
2022-09-13T00:46:38.926Z,2.85
2022-09-13T00:51:36.748Z,2.92
2022-09-13T00:56:38.174Z,3.15
2022-09-13T01:01:41.321Z,2.78
2022-09-13T01:06:40.602Z,3.20
2022-09-13T01:11:49.756Z,3.28
2022-09-13T01:16:51.885Z,3.55
2022-09-13T01:22:13.373Z,3.47
2022-09-13T01:27:33.541Z,3.42
2022-09-13T01:32:42.688Z,3.20
2022-09-13T01:37:51.940Z,3.53
2022-09-13T01:43:02.048Z,3.50
2022-09-13T01:48:11.211Z,3.22
2022-09-13T01:53:36.647Z,3.10
2022-09-13T01:58:43.116Z,3.80
2022-09-13T02:03:48.188Z,4.05
2022-09-13T02:08:49.612Z,3.47
2022-09-13T02:13:53.913Z,3.78
2022-09-13T02:19:16.346Z,3.77
2022-09-13T02:24:24.795Z,4.63
2022-09-13T02:29:25.049Z,3.47
2022-09-13T02:34:25.359Z,3.50
2022-09-13T02:39:27.090Z,3.20
2022-09-13T02:44:30.040Z,3.42
2022-09-13T02:49:34.011Z,3.17
2022-09-13T02:54:36.242Z,3.53
2022-09-13T02:59:34.233Z,3.13
2022-09-13T03:04:33.057Z,4.05
2022-09-13T03:09:33.790Z,3.80
2022-09-13T03:14:39.372Z,4.05
2022-09-13T03:19:53.342Z,3.15
2022-09-13T03:24:57.565Z,3.60
2022-09-13T03:30:09.782Z,4.20
2022-09-13T03:35:17.181Z,3.63
2022-09-13T03:40:18.667Z,3.85
2022-09-13T03:45:19.721Z,4.18
2022-09-13T03:50:21.443Z,4.50
2022-09-13T03:55:19.115Z,4.20
2022-09-13T04:00:17.643Z,4.95
2022-09-13T04:05:15.196Z,4.53
2022-09-13T04:10:14.740Z,6.35
2022-09-13T04:15:16.006Z,5.47
2022-09-13T04:20:35.288Z,6.18
2022-09-13T04:25:38.525Z,8.20
2022-09-13T04:30:38.589Z,6.30
2022-09-13T04:35:40.354Z,4.85
2022-09-13T04:40:40.242Z,4.18
2022-09-13T04:45:40.263Z,3.58
2022-09-13T04:50:46.855Z,4.10
2022-09-13T04:56:15.026Z,4.28
2022-09-13T05:01:13.011Z,3.80
2022-09-13T05:06:12.477Z,3.47
2022-09-13T05:11:14.168Z,3.70
2022-09-13T05:16:29.764Z,3.05
2022-09-13T05:21:30.367Z,2.95
2022-09-13T05:26:34.199Z,3.75
2022-09-13T05:31:33.771Z,5.00
2022-09-13T05:36:34.708Z,2.75
2022-09-13T05:41:36.850Z,2.80
2022-09-13T05:46:37.506Z,3.25
2022-09-13T17:07:19.547Z,3.30
2022-09-13T17:12:53.223Z,3.55
2022-09-13T17:17:57.578Z,3.85
2022-09-13T17:22:55.595Z,4.07
2022-09-13T17:28:41.504Z,3.42
2022-09-13T17:33:19.887Z,3.70
2022-09-13T17:39:13.315Z,2.90
2022-09-13T17:45:06.496Z,4.03
2022-09-13T17:50:15.169Z,3.15
2022-09-13T17:55:26.615Z,2.38
2022-09-13T18:00:28.159Z,2.58
2022-09-13T18:05:37.002Z,2.55
2022-09-13T18:16:00.889Z,2.58
2022-09-13T18:20:58.173Z,2.20
2022-09-13T18:26:11.053Z,2.70
2022-09-13T18:31:18.824Z,3.13
2022-09-13T18:36:22.091Z,2.35
2022-09-13T18:41:25.205Z,6.18
2022-09-13T18:46:27.280Z,3.05
2022-09-13T18:51:26.656Z,3.45
2022-09-13T18:56:28.791Z,3.60
2022-09-13T19:01:29.118Z,2.10
2022-09-13T19:06:31.328Z,2.75
2022-09-13T19:11:49.495Z,2.88
2022-09-13T19:17:02.561Z,2.55
2022-09-13T19:22:13.803Z,2.33
2022-09-13T19:27:19.920Z,2.53
2022-09-13T19:32:42.412Z,2.33
2022-09-13T19:37:41.384Z,2.85
2022-09-13T19:42:43.129Z,2.20
2022-09-13T19:53:05.215Z,2.20
2022-09-13T19:58:04.535Z,2.13
2022-09-13T20:03:24.042Z,2.42
2022-09-13T20:08:30.292Z,2.28
2022-09-13T20:13:31.591Z,2.20
2022-09-13T20:18:37.464Z,1.83
2022-09-13T20:23:44.603Z,2.63
2022-09-13T20:28:48.346Z,1.80
2022-09-13T20:33:48.610Z,2.15
2022-09-13T20:38:56.206Z,1.90
2022-09-13T20:44:13.181Z,2.10
2022-09-13T20:49:45.274Z,2.20
2022-09-13T20:54:44.666Z,2.00
2022-09-13T20:59:46.564Z,2.05
2022-09-13T21:04:43.834Z,1.85
2022-09-13T21:09:43.426Z,2.53
2022-09-13T21:14:41.605Z,2.05
2022-09-13T21:19:42.608Z,1.77
2022-09-13T21:24:41.935Z,2.08
2022-09-13T21:29:40.626Z,1.77
2022-09-13T21:34:47.113Z,1.90
2022-09-13T21:39:44.312Z,1.88
2022-09-13T21:44:47.693Z,2.38
2022-09-13T21:49:47.951Z,2.50
2022-09-13T21:54:47.356Z,1.90
2022-09-13T21:59:46.344Z,2.05
2022-09-13T22:04:46.312Z,2.00
2022-09-13T22:09:43.959Z,1.90
2022-09-13T22:14:41.017Z,2.20
2022-09-13T22:19:38.014Z,2.28
2022-09-13T22:24:35.901Z,2.03
2022-09-13T22:29:33.344Z,2.72
2022-09-13T22:34:36.077Z,1.80
2022-09-13T22:39:47.592Z,1.50
2022-09-13T22:44:44.688Z,2.10
2022-09-13T22:49:41.873Z,1.92
2022-09-13T22:54:39.860Z,2.00
2022-09-13T22:59:39.788Z,1.67
2022-09-13T23:04:36.871Z,1.70
2022-09-13T23:09:34.107Z,2.22
2022-09-13T23:14:36.046Z,1.90
2022-09-13T23:19:35.220Z,2.50
2022-09-13T23:24:32.334Z,1.70
2022-09-13T23:29:30.686Z,2.40
2022-09-13T23:34:30.645Z,2.20
2022-09-13T23:39:30.477Z,2.55
2022-09-13T23:44:29.252Z,2.33
2022-09-13T23:49:34.246Z,2.22
2022-09-13T23:54:39.763Z,2.50
2022-09-13T23:59:43.280Z,2.92
